Terminal Aerodrome Forecast
Issued by NWS Portland, OR

Home | Current Version | Previous Version | Text Only | Print | Product List | Glossary On
Versions: 1 2 3 4 5 6 7 8 9 10 11 12 13
000
FTUS46 KPQR 211140
TAFHIO
TAF
KHIO 211140Z 2112/2212 19007KT P6SM VCSH BKN030 OVC045
     FM211400 28005KT P6SM OVC040
     FM211900 33004KT P6SM SCT040
     FM220000 31008KT P6SM SCT150
     FM220600 31004KT P6SM SCT150=

USA.gov is the U.S. government's official web portal to all federal, state and local government web resources and services.